sensor_id;sensor_type;location;lat;lon;timestamp;temperature;humidity
13332;DHT22;6735;51.456;12.626;2023-06-14T00:01:46;14.10;62.90
13332;DHT22;6735;51.456;12.626;2023-06-14T00:04:12;14.00;63.40
13332;DHT22;6735;51.456;12.626;2023-06-14T00:06:41;13.90;63.60
13332;DHT22;6735;51.456;12.626;2023-06-14T00:09:07;13.90;63.50
13332;DHT22;6735;51.456;12.626;2023-06-14T00:11:33;13.90;62.40
13332;DHT22;6735;51.456;12.626;2023-06-14T00:13:59;13.90;64.20
13332;DHT22;6735;51.456;12.626;2023-06-14T00:16:24;13.80;63.70
13332;DHT22;6735;51.456;12.626;2023-06-14T00:18:50;13.70;63.70
13332;DHT22;6735;51.456;12.626;2023-06-14T00:21:17;13.70;64.50
13332;DHT22;6735;51.456;12.626;2023-06-14T00:23:42;13.70;64.40
13332;DHT22;6735;51.456;12.626;2023-06-14T00:26:08;13.70;63.90
13332;DHT22;6735;51.456;12.626;2023-06-14T00:28:33;13.60;65.20
13332;DHT22;6735;51.456;12.626;2023-06-14T00:30:59;13.60;65.30
13332;DHT22;6735;51.456;12.626;2023-06-14T00:33:24;13.60;65.20
13332;DHT22;6735;51.456;12.626;2023-06-14T00:35:51;13.60;65.50
13332;DHT22;6735;51.456;12.626;2023-06-14T00:38:19;13.60;64.90
13332;DHT22;6735;51.456;12.626;2023-06-14T00:40:45;13.50;65.80
13332;DHT22;6735;51.456;12.626;2023-06-14T00:43:10;13.40;65.90
13332;DHT22;6735;51.456;12.626;2023-06-14T00:45:36;13.40;65.40
13332;DHT22;6735;51.456;12.626;2023-06-14T00:48:02;13.40;66.60
13332;DHT22;6735;51.456;12.626;2023-06-14T00:50:28;13.40;66.40
13332;DHT22;6735;51.456;12.626;2023-06-14T00:52:56;13.30;66.20
13332;DHT22;6735;51.456;12.626;2023-06-14T00:55:22;13.30;66.90
13332;DHT22;6735;51.456;12.626;2023-06-14T00:57:48;13.30;66.50
13332;DHT22;6735;51.456;12.626;2023-06-14T01:00:14;13.20;66.30
13332;DHT22;6735;51.456;12.626;2023-06-14T01:02:40;13.20;66.80
13332;DHT22;6735;51.456;12.626;2023-06-14T01:05:06;13.20;66.80
13332;DHT22;6735;51.456;12.626;2023-06-14T01:08:00;13.20;67.40
13332;DHT22;6735;51.456;12.626;2023-06-14T01:10:47;13.20;67.60
13332;DHT22;6735;51.456;12.626;2023-06-14T01:13:33;13.20;67.30
13332;DHT22;6735;51.456;12.626;2023-06-14T01:15:59;13.10;68.00
13332;DHT22;6735;51.456;12.626;2023-06-14T01:18:25;13.20;67.50
13332;DHT22;6735;51.456;12.626;2023-06-14T01:20:53;13.10;67.30
13332;DHT22;6735;51.456;12.626;2023-06-14T01:23:21;13.10;68.30
13332;DHT22;6735;51.456;12.626;2023-06-14T01:25:48;13.00;68.40
13332;DHT22;6735;51.456;12.626;2023-06-14T01:28:19;12.90;68.50
13332;DHT22;6735;51.456;12.626;2023-06-14T01:30:47;12.90;68.40
13332;DHT22;6735;51.456;12.626;2023-06-14T01:33:17;12.80;68.70
13332;DHT22;6735;51.456;12.626;2023-06-14T01:35:46;12.80;69.00
13332;DHT22;6735;51.456;12.626;2023-06-14T01:38:13;12.80;69.00
13332;DHT22;6735;51.456;12.626;2023-06-14T01:40:39;12.80;69.10
13332;DHT22;6735;51.456;12.626;2023-06-14T01:43:05;12.80;69.00
13332;DHT22;6735;51.456;12.626;2023-06-14T01:45:33;12.70;68.90
13332;DHT22;6735;51.456;12.626;2023-06-14T01:47:59;12.70;69.40
13332;DHT22;6735;51.456;12.626;2023-06-14T01:50:29;12.70;69.10
13332;DHT22;6735;51.456;12.626;2023-06-14T01:52:55;12.60;69.30
13332;DHT22;6735;51.456;12.626;2023-06-14T01:55:20;12.60;69.60
13332;DHT22;6735;51.456;12.626;2023-06-14T01:57:47;12.50;69.90
13332;DHT22;6735;51.456;12.626;2023-06-14T02:00:14;12.50;69.70
13332;DHT22;6735;51.456;12.626;2023-06-14T02:02:40;12.50;70.30
13332;DHT22;6735;51.456;12.626;2023-06-14T02:05:06;12.40;70.10
13332;DHT22;6735;51.456;12.626;2023-06-14T02:07:31;12.40;70.00
13332;DHT22;6735;51.456;12.626;2023-06-14T02:09:57;12.40;70.90
13332;DHT22;6735;51.456;12.626;2023-06-14T02:12:22;12.30;71.50
13332;DHT22;6735;51.456;12.626;2023-06-14T02:14:48;12.30;71.50
13332;DHT22;6735;51.456;12.626;2023-06-14T02:17:14;12.20;71.20
13332;DHT22;6735;51.456;12.626;2023-06-14T02:19:40;12.20;71.30
13332;DHT22;6735;51.456;12.626;2023-06-14T02:22:06;12.20;72.30
13332;DHT22;6735;51.456;12.626;2023-06-14T02:24:32;12.10;72.20
13332;DHT22;6735;51.456;12.626;2023-06-14T02:26:57;12.10;72.50
13332;DHT22;6735;51.456;12.626;2023-06-14T02:29:23;12.20;72.40
13332;DHT22;6735;51.456;12.626;2023-06-14T02:31:48;12.20;72.20
13332;DHT22;6735;51.456;12.626;2023-06-14T02:34:15;12.10;72.40
13332;DHT22;6735;51.456;12.626;2023-06-14T02:36:42;12.10;73.00
13332;DHT22;6735;51.456;12.626;2023-06-14T02:39:11;12.10;72.60
13332;DHT22;6735;51.456;12.626;2023-06-14T02:41:36;12.10;72.20
13332;DHT22;6735;51.456;12.626;2023-06-14T02:44:02;12.00;73.30
13332;DHT22;6735;51.456;12.626;2023-06-14T02:46:28;12.00;72.60
13332;DHT22;6735;51.456;12.626;2023-06-14T02:48:53;12.00;72.90
13332;DHT22;6735;51.456;12.626;2023-06-14T02:51:19;12.00;72.30
13332;DHT22;6735;51.456;12.626;2023-06-14T02:53:44;12.00;73.30
13332;DHT22;6735;51.456;12.626;2023-06-14T02:56:10;11.90;72.80
13332;DHT22;6735;51.456;12.626;2023-06-14T02:58:37;11.90;73.40
13332;DHT22;6735;51.456;12.626;2023-06-14T03:01:04;11.90;73.30
13332;DHT22;6735;51.456;12.626;2023-06-14T03:03:31;11.90;73.30
13332;DHT22;6735;51.456;12.626;2023-06-14T03:05:56;11.90;73.40
13332;DHT22;6735;51.456;12.626;2023-06-14T03:08:22;11.80;73.10
13332;DHT22;6735;51.456;12.626;2023-06-14T03:10:52;11.80;74.00
13332;DHT22;6735;51.456;12.626;2023-06-14T03:13:18;11.80;74.20
13332;DHT22;6735;51.456;12.626;2023-06-14T03:15:47;11.70;74.10
13332;DHT22;6735;51.456;12.626;2023-06-14T03:18:15;11.80;74.00
13332;DHT22;6735;51.456;12.626;2023-06-14T03:20:41;11.70;74.30
13332;DHT22;6735;51.456;12.626;2023-06-14T03:23:08;11.70;74.40
13332;DHT22;6735;51.456;12.626;2023-06-14T03:25:34;11.60;74.90
13332;DHT22;6735;51.456;12.626;2023-06-14T03:28:01;11.60;74.90
13332;DHT22;6735;51.456;12.626;2023-06-14T03:30:27;11.60;74.40
13332;DHT22;6735;51.456;12.626;2023-06-14T03:32:52;11.70;74.40
13332;DHT22;6735;51.456;12.626;2023-06-14T03:35:18;11.70;74.70
13332;DHT22;6735;51.456;12.626;2023-06-14T03:37:45;11.70;74.40
13332;DHT22;6735;51.456;12.626;2023-06-14T03:40:11;11.70;75.00
13332;DHT22;6735;51.456;12.626;2023-06-14T03:42:37;11.70;74.90
13332;DHT22;6735;51.456;12.626;2023-06-14T03:45:03;11.80;74.70
13332;DHT22;6735;51.456;12.626;2023-06-14T03:47:29;11.80;74.60
13332;DHT22;6735;51.456;12.626;2023-06-14T03:49:54;11.80;74.70
13332;DHT22;6735;51.456;12.626;2023-06-14T03:52:20;11.90;74.50
13332;DHT22;6735;51.456;12.626;2023-06-14T03:54:47;11.90;74.70
13332;DHT22;6735;51.456;12.626;2023-06-14T03:57:13;12.00;74.30
13332;DHT22;6735;51.456;12.626;2023-06-14T03:59:38;12.00;74.60
13332;DHT22;6735;51.456;12.626;2023-06-14T04:02:04;12.00;74.80
13332;DHT22;6735;51.456;12.626;2023-06-14T04:04:29;12.10;75.00
13332;DHT22;6735;51.456;12.626;2023-06-14T04:06:55;12.10;74.70
13332;DHT22;6735;51.456;12.626;2023-06-14T04:09:24;12.20;74.90
13332;DHT22;6735;51.456;12.626;2023-06-14T04:11:51;12.20;74.50
13332;DHT22;6735;51.456;12.626;2023-06-14T04:14:18;12.30;74.60
13332;DHT22;6735;51.456;12.626;2023-06-14T04:16:43;12.30;74.50
13332;DHT22;6735;51.456;12.626;2023-06-14T04:19:09;12.40;74.10
13332;DHT22;6735;51.456;12.626;2023-06-14T04:21:34;12.40;74.70
13332;DHT22;6735;51.456;12.626;2023-06-14T04:24:00;12.40;74.50
13332;DHT22;6735;51.456;12.626;2023-06-14T04:26:26;12.50;74.20
13332;DHT22;6735;51.456;12.626;2023-06-14T04:28:55;12.60;74.00
13332;DHT22;6735;51.456;12.626;2023-06-14T04:31:24;12.70;73.70
13332;DHT22;6735;51.456;12.626;2023-06-14T04:33:55;12.80;73.70
13332;DHT22;6735;51.456;12.626;2023-06-14T04:36:20;13.00;72.70
13332;DHT22;6735;51.456;12.626;2023-06-14T04:38:46;13.10;73.10
13332;DHT22;6735;51.456;12.626;2023-06-14T04:41:12;13.20;72.90
13332;DHT22;6735;51.456;12.626;2023-06-14T04:43:37;13.20;72.80
13332;DHT22;6735;51.456;12.626;2023-06-14T04:46:04;13.30;72.70
13332;DHT22;6735;51.456;12.626;2023-06-14T04:48:31;13.50;72.00
13332;DHT22;6735;51.456;12.626;2023-06-14T04:50:56;13.50;71.80
13332;DHT22;6735;51.456;12.626;2023-06-14T04:53:22;13.80;71.60
13332;DHT22;6735;51.456;12.626;2023-06-14T04:55:48;15.10;67.70
13332;DHT22;6735;51.456;12.626;2023-06-14T04:58:15;16.30;64.10
13332;DHT22;6735;51.456;12.626;2023-06-14T05:00:41;17.60;59.20
13332;DHT22;6735;51.456;12.626;2023-06-14T05:03:08;18.80;56.50
13332;DHT22;6735;51.456;12.626;2023-06-14T05:05:34;19.70;52.30
13332;DHT22;6735;51.456;12.626;2023-06-14T05:07:59;20.80;49.70
13332;DHT22;6735;51.456;12.626;2023-06-14T05:10:25;21.10;48.10
13332;DHT22;6735;51.456;12.626;2023-06-14T05:12:51;21.50;47.90
13332;DHT22;6735;51.456;12.626;2023-06-14T05:15:18;22.10;45.20
13332;DHT22;6735;51.456;12.626;2023-06-14T05:17:45;22.30;44.50
13332;DHT22;6735;51.456;12.626;2023-06-14T05:20:13;22.30;44.50
13332;DHT22;6735;51.456;12.626;2023-06-14T05:22:38;22.80;44.40
13332;DHT22;6735;51.456;12.626;2023-06-14T05:25:04;23.00;44.00
13332;DHT22;6735;51.456;12.626;2023-06-14T05:27:30;23.40;42.10
13332;DHT22;6735;51.456;12.626;2023-06-14T05:29:56;23.90;41.00
13332;DHT22;6735;51.456;12.626;2023-06-14T05:32:23;24.40;40.80
13332;DHT22;6735;51.456;12.626;2023-06-14T05:34:49;23.60;41.00
13332;DHT22;6735;51.456;12.626;2023-06-14T05:37:15;23.30;42.00
13332;DHT22;6735;51.456;12.626;2023-06-14T05:39:41;23.80;40.80
13332;DHT22;6735;51.456;12.626;2023-06-14T05:42:06;24.10;40.90
13332;DHT22;6735;51.456;12.626;2023-06-14T05:44:32;24.20;39.40
13332;DHT22;6735;51.456;12.626;2023-06-14T05:46:57;24.10;40.60
13332;DHT22;6735;51.456;12.626;2023-06-14T05:49:23;24.30;40.00
13332;DHT22;6735;51.456;12.626;2023-06-14T05:51:48;24.50;39.50
13332;DHT22;6735;51.456;12.626;2023-06-14T05:54:14;24.60;39.50
13332;DHT22;6735;51.456;12.626;2023-06-14T05:56:39;24.20;40.20
13332;DHT22;6735;51.456;12.626;2023-06-14T05:59:05;24.70;40.10
13332;DHT22;6735;51.456;12.626;2023-06-14T06:01:30;25.00;38.40
13332;DHT22;6735;51.456;12.626;2023-06-14T06:03:58;25.50;38.30
13332;DHT22;6735;51.456;12.626;2023-06-14T06:06:23;25.50;37.00
13332;DHT22;6735;51.456;12.626;2023-06-14T06:08:48;25.80;38.30
13332;DHT22;6735;51.456;12.626;2023-06-14T06:11:14;25.90;37.20
13332;DHT22;6735;51.456;12.626;2023-06-14T06:13:40;25.70;37.30
13332;DHT22;6735;51.456;12.626;2023-06-14T06:16:06;25.40;37.40
13332;DHT22;6735;51.456;12.626;2023-06-14T06:18:32;25.10;38.50
13332;DHT22;6735;51.456;12.626;2023-06-14T06:20:57;25.10;38.10
13332;DHT22;6735;51.456;12.626;2023-06-14T06:23:22;24.60;39.00
13332;DHT22;6735;51.456;12.626;2023-06-14T06:25:48;24.40;39.00
13332;DHT22;6735;51.456;12.626;2023-06-14T06:28:14;24.20;39.40
13332;DHT22;6735;51.456;12.626;2023-06-14T06:30:40;24.10;39.50
13332;DHT22;6735;51.456;12.626;2023-06-14T06:33:05;24.30;39.50
13332;DHT22;6735;51.456;12.626;2023-06-14T06:35:31;24.40;40.10
13332;DHT22;6735;51.456;12.626;2023-06-14T06:37:58;24.20;39.40
13332;DHT22;6735;51.456;12.626;2023-06-14T06:40:23;24.30;39.80
13332;DHT22;6735;51.456;12.626;2023-06-14T06:42:49;24.30;39.60
13332;DHT22;6735;51.456;12.626;2023-06-14T06:45:15;24.80;39.00
13332;DHT22;6735;51.456;12.626;2023-06-14T06:47:40;25.00;38.70
13332;DHT22;6735;51.456;12.626;2023-06-14T06:50:06;24.70;38.70
13332;DHT22;6735;51.456;12.626;2023-06-14T06:52:33;24.70;39.10
13332;DHT22;6735;51.456;12.626;2023-06-14T06:54:58;24.20;40.20
13332;DHT22;6735;51.456;12.626;2023-06-14T06:57:24;24.60;39.60
13332;DHT22;6735;51.456;12.626;2023-06-14T06:59:50;24.90;39.00
13332;DHT22;6735;51.456;12.626;2023-06-14T07:02:16;24.70;39.00
13332;DHT22;6735;51.456;12.626;2023-06-14T07:04:41;24.40;39.50
13332;DHT22;6735;51.456;12.626;2023-06-14T07:07:07;24.10;39.60
13332;DHT22;6735;51.456;12.626;2023-06-14T07:09:34;23.60;40.20
13332;DHT22;6735;51.456;12.626;2023-06-14T07:12:00;23.80;40.30
13332;DHT22;6735;51.456;12.626;2023-06-14T07:14:25;24.10;39.60
13332;DHT22;6735;51.456;12.626;2023-06-14T07:16:51;23.60;40.70
13332;DHT22;6735;51.456;12.626;2023-06-14T07:19:17;23.50;39.90
13332;DHT22;6735;51.456;12.626;2023-06-14T07:21:42;23.40;40.10
13332;DHT22;6735;51.456;12.626;2023-06-14T07:24:08;23.40;40.60
13332;DHT22;6735;51.456;12.626;2023-06-14T07:26:34;23.70;40.20
13332;DHT22;6735;51.456;12.626;2023-06-14T07:29:00;23.80;39.70
13332;DHT22;6735;51.456;12.626;2023-06-14T07:31:26;23.70;38.80
13332;DHT22;6735;51.456;12.626;2023-06-14T07:33:51;23.30;39.90
13332;DHT22;6735;51.456;12.626;2023-06-14T07:36:17;22.80;41.30
13332;DHT22;6735;51.456;12.626;2023-06-14T07:38:43;22.90;41.10
13332;DHT22;6735;51.456;12.626;2023-06-14T07:41:08;22.90;40.40
13332;DHT22;6735;51.456;12.626;2023-06-14T07:43:34;23.10;40.90
13332;DHT22;6735;51.456;12.626;2023-06-14T07:45:59;22.80;40.50
13332;DHT22;6735;51.456;12.626;2023-06-14T07:48:25;23.10;40.20
13332;DHT22;6735;51.456;12.626;2023-06-14T07:50:50;23.00;40.10
13332;DHT22;6735;51.456;12.626;2023-06-14T07:53:16;23.10;40.50
13332;DHT22;6735;51.456;12.626;2023-06-14T07:55:41;23.30;40.10
13332;DHT22;6735;51.456;12.626;2023-06-14T07:58:08;23.20;40.50
13332;DHT22;6735;51.456;12.626;2023-06-14T08:00:34;23.80;40.00
13332;DHT22;6735;51.456;12.626;2023-06-14T08:03:00;23.90;38.40
13332;DHT22;6735;51.456;12.626;2023-06-14T08:05:26;23.60;38.70
13332;DHT22;6735;51.456;12.626;2023-06-14T08:07:52;23.90;38.00
13332;DHT22;6735;51.456;12.626;2023-06-14T08:10:17;23.90;38.30
13332;DHT22;6735;51.456;12.626;2023-06-14T08:12:43;23.70;37.80
13332;DHT22;6735;51.456;12.626;2023-06-14T08:15:08;24.20;37.70
13332;DHT22;6735;51.456;12.626;2023-06-14T08:17:34;24.20;37.20
13332;DHT22;6735;51.456;12.626;2023-06-14T08:20:00;24.40;37.70
13332;DHT22;6735;51.456;12.626;2023-06-14T08:22:26;24.70;37.40
13332;DHT22;6735;51.456;12.626;2023-06-14T08:24:53;24.60;37.00
13332;DHT22;6735;51.456;12.626;2023-06-14T08:27:19;24.40;36.90
13332;DHT22;6735;51.456;12.626;2023-06-14T08:29:45;24.40;37.00
13332;DHT22;6735;51.456;12.626;2023-06-14T08:32:11;24.30;37.30
13332;DHT22;6735;51.456;12.626;2023-06-14T08:34:36;23.90;37.30
13332;DHT22;6735;51.456;12.626;2023-06-14T08:37:02;24.20;37.10
13332;DHT22;6735;51.456;12.626;2023-06-14T08:39:27;24.20;36.00
13332;DHT22;6735;51.456;12.626;2023-06-14T08:41:53;24.30;36.10
13332;DHT22;6735;51.456;12.626;2023-06-14T08:44:19;24.30;36.00
13332;DHT22;6735;51.456;12.626;2023-06-14T08:46:45;24.20;36.00
13332;DHT22;6735;51.456;12.626;2023-06-14T08:49:13;24.20;36.20
13332;DHT22;6735;51.456;12.626;2023-06-14T08:51:43;23.90;35.80
13332;DHT22;6735;51.456;12.626;2023-06-14T08:54:11;24.20;36.60
13332;DHT22;6735;51.456;12.626;2023-06-14T08:56:38;24.50;35.90
13332;DHT22;6735;51.456;12.626;2023-06-14T08:59:04;24.60;34.60
13332;DHT22;6735;51.456;12.626;2023-06-14T09:01:33;24.80;34.50
13332;DHT22;6735;51.456;12.626;2023-06-14T09:03:59;25.20;34.30
13332;DHT22;6735;51.456;12.626;2023-06-14T09:06:25;24.90;34.30
13332;DHT22;6735;51.456;12.626;2023-06-14T09:08:50;24.90;34.00
13332;DHT22;6735;51.456;12.626;2023-06-14T09:11:18;25.10;34.50
13332;DHT22;6735;51.456;12.626;2023-06-14T09:13:48;24.90;34.40
13332;DHT22;6735;51.456;12.626;2023-06-14T09:16:13;24.60;35.00
13332;DHT22;6735;51.456;12.626;2023-06-14T09:18:44;24.50;34.80
13332;DHT22;6735;51.456;12.626;2023-06-14T09:21:13;24.10;35.20
13332;DHT22;6735;51.456;12.626;2023-06-14T09:23:44;23.70;35.50
13332;DHT22;6735;51.456;12.626;2023-06-14T09:26:11;23.70;35.90
13332;DHT22;6735;51.456;12.626;2023-06-14T09:28:48;24.00;36.40
13332;DHT22;6735;51.456;12.626;2023-06-14T09:31:19;24.40;35.70
13332;DHT22;6735;51.456;12.626;2023-06-14T09:33:46;24.50;35.40
13332;DHT22;6735;51.456;12.626;2023-06-14T09:36:18;24.70;35.20
13332;DHT22;6735;51.456;12.626;2023-06-14T09:38:58;24.70;34.70
13332;DHT22;6735;51.456;12.626;2023-06-14T09:41:32;24.50;35.40
13332;DHT22;6735;51.456;12.626;2023-06-14T09:43:59;24.10;35.70
13332;DHT22;6735;51.456;12.626;2023-06-14T09:46:27;23.90;35.50
13332;DHT22;6735;51.456;12.626;2023-06-14T09:48:52;23.70;35.90
13332;DHT22;6735;51.456;12.626;2023-06-14T09:51:18;23.70;35.90
13332;DHT22;6735;51.456;12.626;2023-06-14T09:53:46;23.70;35.80
13332;DHT22;6735;51.456;12.626;2023-06-14T09:56:15;24.10;35.50
13332;DHT22;6735;51.456;12.626;2023-06-14T09:58:44;24.60;34.90
13332;DHT22;6735;51.456;12.626;2023-06-14T10:01:09;24.60;34.90
13332;DHT22;6735;51.456;12.626;2023-06-14T10:03:39;25.10;34.60
13332;DHT22;6735;51.456;12.626;2023-06-14T10:06:06;25.10;34.20
13332;DHT22;6735;51.456;12.626;2023-06-14T10:08:36;25.10;35.20
13332;DHT22;6735;51.456;12.626;2023-06-14T10:11:02;25.20;34.60
13332;DHT22;6735;51.456;12.626;2023-06-14T10:13:29;25.30;34.50
13332;DHT22;6735;51.456;12.626;2023-06-14T10:16:11;24.70;35.20
13332;DHT22;6735;51.456;12.626;2023-06-14T10:18:50;24.30;35.50
13332;DHT22;6735;51.456;12.626;2023-06-14T10:21:23;24.30;35.80
13332;DHT22;6735;51.456;12.626;2023-06-14T10:23:52;24.70;35.50
13332;DHT22;6735;51.456;12.626;2023-06-14T10:26:20;25.20;35.50
13332;DHT22;6735;51.456;12.626;2023-06-14T10:29:07;25.40;34.80
13332;DHT22;6735;51.456;12.626;2023-06-14T10:31:43;25.20;35.40
13332;DHT22;6735;51.456;12.626;2023-06-14T10:34:08;25.20;35.60
13332;DHT22;6735;51.456;12.626;2023-06-14T10:36:34;25.50;35.70
13332;DHT22;6735;51.456;12.626;2023-06-14T10:39:17;25.40;35.50
13332;DHT22;6735;51.456;12.626;2023-06-14T10:41:51;25.30;35.50
13332;DHT22;6735;51.456;12.626;2023-06-14T10:44:38;25.40;35.70
13332;DHT22;6735;51.456;12.626;2023-06-14T10:47:07;25.70;34.90
13332;DHT22;6735;51.456;12.626;2023-06-14T10:49:41;25.40;35.30
13332;DHT22;6735;51.456;12.626;2023-06-14T10:52:17;25.70;34.40
13332;DHT22;6735;51.456;12.626;2023-06-14T10:57:34;26.10;34.30
13332;DHT22;6735;51.456;12.626;2023-06-14T11:00:00;26.50;34.50
13332;DHT22;6735;51.456;12.626;2023-06-14T11:05:03;26.30;34.60
13332;DHT22;6735;51.456;12.626;2023-06-14T11:07:42;26.10;34.50
13332;DHT22;6735;51.456;12.626;2023-06-14T11:10:41;25.70;35.30
13332;DHT22;6735;51.456;12.626;2023-06-14T11:13:07;25.20;36.50
13332;DHT22;6735;51.456;12.626;2023-06-14T11:15:37;25.30;36.10
13332;DHT22;6735;51.456;12.626;2023-06-14T11:18:05;25.70;35.10
13332;DHT22;6735;51.456;12.626;2023-06-14T11:20:34;25.90;35.30
13332;DHT22;6735;51.456;12.626;2023-06-14T11:23:00;25.90;35.60
13332;DHT22;6735;51.456;12.626;2023-06-14T11:25:26;25.60;36.10
13332;DHT22;6735;51.456;12.626;2023-06-14T11:27:55;25.40;36.60
13332;DHT22;6735;51.456;12.626;2023-06-14T11:30:22;25.70;36.60
13332;DHT22;6735;51.456;12.626;2023-06-14T11:32:48;25.60;36.60
13332;DHT22;6735;51.456;12.626;2023-06-14T11:35:15;25.70;36.40
13332;DHT22;6735;51.456;12.626;2023-06-14T11:37:41;25.60;36.70
13332;DHT22;6735;51.456;12.626;2023-06-14T11:40:08;25.80;36.30
13332;DHT22;6735;51.456;12.626;2023-06-14T11:42:35;26.20;35.70
13332;DHT22;6735;51.456;12.626;2023-06-14T11:45:01;26.70;34.70
13332;DHT22;6735;51.456;12.626;2023-06-14T11:47:34;27.00;34.60
13332;DHT22;6735;51.456;12.626;2023-06-14T11:50:01;27.00;33.70
13332;DHT22;6735;51.456;12.626;2023-06-14T11:52:26;26.90;34.30
13332;DHT22;6735;51.456;12.626;2023-06-14T11:54:53;26.30;35.10
13332;DHT22;6735;51.456;12.626;2023-06-14T11:57:18;26.40;35.30
13332;DHT22;6735;51.456;12.626;2023-06-14T11:59:44;25.90;36.00
13332;DHT22;6735;51.456;12.626;2023-06-14T12:02:21;25.20;37.10
13332;DHT22;6735;51.456;12.626;2023-06-14T12:04:47;24.70;38.30
13332;DHT22;6735;51.456;12.626;2023-06-14T12:07:17;24.60;39.00
13332;DHT22;6735;51.456;12.626;2023-06-14T12:12:23;24.60;38.00
13332;DHT22;6735;51.456;12.626;2023-06-14T12:14:51;24.40;38.10
13332;DHT22;6735;51.456;12.626;2023-06-14T12:17:17;24.50;38.60
13332;DHT22;6735;51.456;12.626;2023-06-14T12:19:46;24.40;39.20
13332;DHT22;6735;51.456;12.626;2023-06-14T12:22:13;24.50;39.60
13332;DHT22;6735;51.456;12.626;2023-06-14T12:24:42;24.40;40.10
13332;DHT22;6735;51.456;12.626;2023-06-14T12:27:08;24.40;39.80
13332;DHT22;6735;51.456;12.626;2023-06-14T12:29:34;24.40;40.30
13332;DHT22;6735;51.456;12.626;2023-06-14T12:32:00;24.40;40.40
13332;DHT22;6735;51.456;12.626;2023-06-14T12:34:26;24.30;40.40
13332;DHT22;6735;51.456;12.626;2023-06-14T12:36:55;24.10;40.10
13332;DHT22;6735;51.456;12.626;2023-06-14T12:39:21;24.00;40.40
13332;DHT22;6735;51.456;12.626;2023-06-14T12:41:47;24.20;40.70
13332;DHT22;6735;51.456;12.626;2023-06-14T12:44:13;24.20;40.00
13332;DHT22;6735;51.456;12.626;2023-06-14T12:46:40;24.10;40.90
13332;DHT22;6735;51.456;12.626;2023-06-14T12:49:08;24.50;39.90
13332;DHT22;6735;51.456;12.626;2023-06-14T12:51:33;24.40;39.30
13332;DHT22;6735;51.456;12.626;2023-06-14T12:53:59;24.10;39.90
13332;DHT22;6735;51.456;12.626;2023-06-14T12:56:24;23.90;40.60
13332;DHT22;6735;51.456;12.626;2023-06-14T12:58:51;24.00;40.80
13332;DHT22;6735;51.456;12.626;2023-06-14T13:01:17;23.80;41.30
13332;DHT22;6735;51.456;12.626;2023-06-14T13:03:42;23.90;41.10
13332;DHT22;6735;51.456;12.626;2023-06-14T13:06:08;23.90;41.40
13332;DHT22;6735;51.456;12.626;2023-06-14T13:08:33;23.90;41.10
13332;DHT22;6735;51.456;12.626;2023-06-14T13:10:59;23.90;41.40
13332;DHT22;6735;51.456;12.626;2023-06-14T13:13:25;23.50;42.00
13332;DHT22;6735;51.456;12.626;2023-06-14T13:15:51;23.20;42.40
13332;DHT22;6735;51.456;12.626;2023-06-14T13:18:17;23.60;41.80
13332;DHT22;6735;51.456;12.626;2023-06-14T13:20:42;23.30;41.70
13332;DHT22;6735;51.456;12.626;2023-06-14T13:23:09;23.40;41.50
13332;DHT22;6735;51.456;12.626;2023-06-14T13:25:36;23.60;41.40
13332;DHT22;6735;51.456;12.626;2023-06-14T13:28:03;23.90;40.40
13332;DHT22;6735;51.456;12.626;2023-06-14T13:30:28;24.20;40.50
13332;DHT22;6735;51.456;12.626;2023-06-14T13:32:54;24.50;39.80
13332;DHT22;6735;51.456;12.626;2023-06-14T13:35:21;24.40;39.60
13332;DHT22;6735;51.456;12.626;2023-06-14T13:37:46;24.60;39.40
13332;DHT22;6735;51.456;12.626;2023-06-14T13:40:12;24.90;38.90
13332;DHT22;6735;51.456;12.626;2023-06-14T13:42:38;25.20;38.60
13332;DHT22;6735;51.456;12.626;2023-06-14T13:45:04;25.20;38.20
13332;DHT22;6735;51.456;12.626;2023-06-14T13:47:31;25.20;37.60
13332;DHT22;6735;51.456;12.626;2023-06-14T13:49:57;25.20;38.40
13332;DHT22;6735;51.456;12.626;2023-06-14T13:52:22;25.30;38.00
13332;DHT22;6735;51.456;12.626;2023-06-14T13:54:48;25.20;38.60
13332;DHT22;6735;51.456;12.626;2023-06-14T13:57:14;25.20;37.90
13332;DHT22;6735;51.456;12.626;2023-06-14T13:59:40;24.90;38.60
13332;DHT22;6735;51.456;12.626;2023-06-14T14:02:06;24.70;39.20
13332;DHT22;6735;51.456;12.626;2023-06-14T14:04:33;24.40;39.60
13332;DHT22;6735;51.456;12.626;2023-06-14T14:06:59;24.20;40.20
13332;DHT22;6735;51.456;12.626;2023-06-14T14:09:25;24.20;40.00
13332;DHT22;6735;51.456;12.626;2023-06-14T14:11:50;23.90;40.70
13332;DHT22;6735;51.456;12.626;2023-06-14T14:14:16;24.00;41.00
13332;DHT22;6735;51.456;12.626;2023-06-14T14:16:41;23.90;40.60
13332;DHT22;6735;51.456;12.626;2023-06-14T14:19:07;23.70;40.90
13332;DHT22;6735;51.456;12.626;2023-06-14T14:21:33;23.70;41.00
13332;DHT22;6735;51.456;12.626;2023-06-14T14:23:58;23.70;41.10
13332;DHT22;6735;51.456;12.626;2023-06-14T14:26:24;23.60;41.40
13332;DHT22;6735;51.456;12.626;2023-06-14T14:28:50;23.60;42.00
13332;DHT22;6735;51.456;12.626;2023-06-14T14:31:16;23.70;41.60
13332;DHT22;6735;51.456;12.626;2023-06-14T14:33:41;23.80;41.60
13332;DHT22;6735;51.456;12.626;2023-06-14T14:36:07;23.90;42.30
13332;DHT22;6735;51.456;12.626;2023-06-14T14:38:33;24.00;41.80
13332;DHT22;6735;51.456;12.626;2023-06-14T14:40:58;23.90;41.30
13332;DHT22;6735;51.456;12.626;2023-06-14T14:43:24;23.70;41.50
13332;DHT22;6735;51.456;12.626;2023-06-14T14:45:49;23.80;41.70
13332;DHT22;6735;51.456;12.626;2023-06-14T14:48:15;23.80;41.40
13332;DHT22;6735;51.456;12.626;2023-06-14T14:50:40;23.90;41.60
13332;DHT22;6735;51.456;12.626;2023-06-14T14:53:06;23.80;41.80
13332;DHT22;6735;51.456;12.626;2023-06-14T14:55:32;23.90;41.70
13332;DHT22;6735;51.456;12.626;2023-06-14T14:58:00;23.90;41.80
13332;DHT22;6735;51.456;12.626;2023-06-14T15:00:25;23.90;42.20
13332;DHT22;6735;51.456;12.626;2023-06-14T15:02:51;23.80;41.90
13332;DHT22;6735;51.456;12.626;2023-06-14T15:05:17;23.90;41.80
13332;DHT22;6735;51.456;12.626;2023-06-14T15:07:42;23.90;41.40
13332;DHT22;6735;51.456;12.626;2023-06-14T15:10:08;24.00;41.80
13332;DHT22;6735;51.456;12.626;2023-06-14T15:12:34;24.00;41.70
13332;DHT22;6735;51.456;12.626;2023-06-14T15:15:00;23.90;41.70
13332;DHT22;6735;51.456;12.626;2023-06-14T15:17:26;23.90;41.30
13332;DHT22;6735;51.456;12.626;2023-06-14T15:19:52;24.00;41.40
13332;DHT22;6735;51.456;12.626;2023-06-14T15:22:17;23.90;41.40
13332;DHT22;6735;51.456;12.626;2023-06-14T15:24:43;23.80;41.30
13332;DHT22;6735;51.456;12.626;2023-06-14T15:27:09;23.70;42.20
13332;DHT22;6735;51.456;12.626;2023-06-14T15:29:36;23.70;42.20
13332;DHT22;6735;51.456;12.626;2023-06-14T15:32:02;23.60;42.50
13332;DHT22;6735;51.456;12.626;2023-06-14T15:34:27;23.70;42.60
13332;DHT22;6735;51.456;12.626;2023-06-14T15:36:52;23.70;42.40